sensor_id;sensor_type;location;lat;lon;timestamp;P1;durP1;ratioP1;P2;durP2;ratioP2
10904;SDS011;5505;51.450;9.254;2023-06-22T00:00:07;34.53;;;13.20;;
10904;SDS011;5505;51.450;9.254;2023-06-22T00:02:57;40.20;;;13.27;;
10904;SDS011;5505;51.450;9.254;2023-06-22T00:05:43;31.80;;;12.80;;
10904;SDS011;5505;51.450;9.254;2023-06-22T00:08:31;29.37;;;13.87;;
10904;SDS011;5505;51.450;9.254;2023-06-22T00:11:18;32.23;;;13.57;;
10904;SDS011;5505;51.450;9.254;2023-06-22T00:14:06;30.57;;;13.40;;
10904;SDS011;5505;51.450;9.254;2023-06-22T00:16:53;26.27;;;13.37;;
10904;SDS011;5505;51.450;9.254;2023-06-22T00:19:42;24.77;;;13.80;;
10904;SDS011;5505;51.450;9.254;2023-06-22T00:22:29;25.33;;;14.70;;
10904;SDS011;5505;51.450;9.254;2023-06-22T00:25:15;33.07;;;14.10;;
10904;SDS011;5505;51.450;9.254;2023-06-22T00:28:02;28.73;;;14.20;;
10904;SDS011;5505;51.450;9.254;2023-06-22T00:30:51;29.10;;;14.40;;
10904;SDS011;5505;51.450;9.254;2023-06-22T00:33:38;28.43;;;13.60;;
10904;SDS011;5505;51.450;9.254;2023-06-22T00:36:24;30.93;;;13.63;;
10904;SDS011;5505;51.450;9.254;2023-06-22T00:39:12;39.20;;;14.33;;
10904;SDS011;5505;51.450;9.254;2023-06-22T00:41:58;27.33;;;13.07;;
10904;SDS011;5505;51.450;9.254;2023-06-22T00:44:45;27.20;;;12.77;;
10904;SDS011;5505;51.450;9.254;2023-06-22T00:47:33;40.23;;;13.67;;
10904;SDS011;5505;51.450;9.254;2023-06-22T00:50:21;41.10;;;13.73;;
10904;SDS011;5505;51.450;9.254;2023-06-22T00:53:08;36.33;;;12.73;;
10904;SDS011;5505;51.450;9.254;2023-06-22T00:55:56;37.27;;;13.83;;
10904;SDS011;5505;51.450;9.254;2023-06-22T00:58:44;34.37;;;12.93;;
10904;SDS011;5505;51.450;9.254;2023-06-22T01:01:32;33.17;;;13.60;;
10904;SDS011;5505;51.450;9.254;2023-06-22T01:04:21;26.17;;;13.67;;
10904;SDS011;5505;51.450;9.254;2023-06-22T01:07:13;21.63;;;13.40;;
10904;SDS011;5505;51.450;9.254;2023-06-22T01:10:08;27.67;;;13.63;;
10904;SDS011;5505;51.450;9.254;2023-06-22T01:13:02;23.80;;;13.80;;
10904;SDS011;5505;51.450;9.254;2023-06-22T01:15:55;27.67;;;13.63;;
10904;SDS011;5505;51.450;9.254;2023-06-22T01:18:46;27.37;;;12.93;;
10904;SDS011;5505;51.450;9.254;2023-06-22T01:21:37;26.47;;;12.53;;
10904;SDS011;5505;51.450;9.254;2023-06-22T01:24:26;29.93;;;13.47;;
10904;SDS011;5505;51.450;9.254;2023-06-22T01:27:26;26.90;;;13.10;;
10904;SDS011;5505;51.450;9.254;2023-06-22T01:30:21;25.93;;;13.37;;
10904;SDS011;5505;51.450;9.254;2023-06-22T01:33:10;23.27;;;12.67;;
10904;SDS011;5505;51.450;9.254;2023-06-22T01:35:59;21.90;;;13.83;;
10904;SDS011;5505;51.450;9.254;2023-06-22T01:38:47;25.03;;;13.50;;
10904;SDS011;5505;51.450;9.254;2023-06-22T01:41:35;28.03;;;14.23;;
10904;SDS011;5505;51.450;9.254;2023-06-22T01:44:23;24.90;;;14.17;;
10904;SDS011;5505;51.450;9.254;2023-06-22T01:47:13;22.77;;;13.60;;
10904;SDS011;5505;51.450;9.254;2023-06-22T01:50:00;28.70;;;14.67;;
10904;SDS011;5505;51.450;9.254;2023-06-22T01:52:47;25.90;;;13.57;;
10904;SDS011;5505;51.450;9.254;2023-06-22T01:55:34;27.83;;;13.63;;
10904;SDS011;5505;51.450;9.254;2023-06-22T01:58:21;25.07;;;14.57;;
10904;SDS011;5505;51.450;9.254;2023-06-22T02:01:12;28.53;;;14.30;;
10904;SDS011;5505;51.450;9.254;2023-06-22T02:04:04;25.33;;;15.03;;
10904;SDS011;5505;51.450;9.254;2023-06-22T02:06:54;26.33;;;15.40;;
10904;SDS011;5505;51.450;9.254;2023-06-22T02:09:45;27.67;;;15.87;;
10904;SDS011;5505;51.450;9.254;2023-06-22T02:12:33;29.30;;;17.53;;
10904;SDS011;5505;51.450;9.254;2023-06-22T02:15:22;25.53;;;16.40;;
10904;SDS011;5505;51.450;9.254;2023-06-22T02:18:09;26.70;;;17.67;;
10904;SDS011;5505;51.450;9.254;2023-06-22T02:20:57;29.90;;;17.13;;
10904;SDS011;5505;51.450;9.254;2023-06-22T02:23:44;26.47;;;16.97;;
10904;SDS011;5505;51.450;9.254;2023-06-22T02:26:31;30.10;;;17.40;;
10904;SDS011;5505;51.450;9.254;2023-06-22T02:29:19;33.53;;;19.13;;
10904;SDS011;5505;51.450;9.254;2023-06-22T02:32:06;25.23;;;18.60;;
10904;SDS011;5505;51.450;9.254;2023-06-22T02:34:53;27.17;;;18.17;;
10904;SDS011;5505;51.450;9.254;2023-06-22T02:37:41;31.57;;;19.40;;
10904;SDS011;5505;51.450;9.254;2023-06-22T02:40:28;24.57;;;18.43;;
10904;SDS011;5505;51.450;9.254;2023-06-22T02:43:16;25.37;;;20.00;;
10904;SDS011;5505;51.450;9.254;2023-06-22T02:46:02;25.50;;;19.93;;
10904;SDS011;5505;51.450;9.254;2023-06-22T02:48:49;24.17;;;19.10;;
10904;SDS011;5505;51.450;9.254;2023-06-22T02:51:37;41.00;;;18.33;;
10904;SDS011;5505;51.450;9.254;2023-06-22T02:54:26;47.10;;;19.03;;
10904;SDS011;5505;51.450;9.254;2023-06-22T02:57:13;40.93;;;19.67;;
10904;SDS011;5505;51.450;9.254;2023-06-22T03:00:01;30.70;;;18.77;;
10904;SDS011;5505;51.450;9.254;2023-06-22T03:02:51;28.43;;;18.37;;
10904;SDS011;5505;51.450;9.254;2023-06-22T03:05:38;34.67;;;18.70;;
10904;SDS011;5505;51.450;9.254;2023-06-22T03:08:25;32.33;;;19.67;;
10904;SDS011;5505;51.450;9.254;2023-06-22T03:11:13;29.23;;;19.90;;
10904;SDS011;5505;51.450;9.254;2023-06-22T03:14:00;32.33;;;19.73;;
10904;SDS011;5505;51.450;9.254;2023-06-22T03:16:47;27.23;;;18.93;;
10904;SDS011;5505;51.450;9.254;2023-06-22T03:19:34;27.03;;;19.50;;
10904;SDS011;5505;51.450;9.254;2023-06-22T03:22:21;32.63;;;19.47;;
10904;SDS011;5505;51.450;9.254;2023-06-22T03:25:08;28.10;;;18.30;;
10904;SDS011;5505;51.450;9.254;2023-06-22T03:27:59;26.87;;;18.97;;
10904;SDS011;5505;51.450;9.254;2023-06-22T03:30:46;26.87;;;18.77;;
10904;SDS011;5505;51.450;9.254;2023-06-22T03:33:33;24.50;;;18.13;;
10904;SDS011;5505;51.450;9.254;2023-06-22T03:36:19;28.00;;;19.53;;
10904;SDS011;5505;51.450;9.254;2023-06-22T03:39:07;29.97;;;19.97;;
10904;SDS011;5505;51.450;9.254;2023-06-22T03:41:54;27.83;;;19.90;;
10904;SDS011;5505;51.450;9.254;2023-06-22T03:44:42;24.33;;;19.90;;
10904;SDS011;5505;51.450;9.254;2023-06-22T03:47:28;23.97;;;20.30;;
10904;SDS011;5505;51.450;9.254;2023-06-22T03:50:15;25.47;;;21.27;;
10904;SDS011;5505;51.450;9.254;2023-06-22T03:53:05;26.73;;;20.90;;
10904;SDS011;5505;51.450;9.254;2023-06-22T03:55:52;26.17;;;21.03;;
10904;SDS011;5505;51.450;9.254;2023-06-22T03:58:39;28.50;;;21.53;;
10904;SDS011;5505;51.450;9.254;2023-06-22T04:01:29;28.57;;;22.70;;
10904;SDS011;5505;51.450;9.254;2023-06-22T04:04:16;26.83;;;23.70;;
10904;SDS011;5505;51.450;9.254;2023-06-22T04:07:03;25.43;;;22.57;;
10904;SDS011;5505;51.450;9.254;2023-06-22T04:09:50;25.83;;;23.13;;
10904;SDS011;5505;51.450;9.254;2023-06-22T04:12:37;31.27;;;23.73;;
10904;SDS011;5505;51.450;9.254;2023-06-22T04:15:24;27.50;;;24.80;;
10904;SDS011;5505;51.450;9.254;2023-06-22T04:18:12;32.43;;;23.87;;
10904;SDS011;5505;51.450;9.254;2023-06-22T04:20:59;27.07;;;23.27;;
10904;SDS011;5505;51.450;9.254;2023-06-22T04:23:46;25.50;;;22.80;;
10904;SDS011;5505;51.450;9.254;2023-06-22T04:26:33;25.57;;;22.60;;
10904;SDS011;5505;51.450;9.254;2023-06-22T04:29:21;28.03;;;21.10;;
10904;SDS011;5505;51.450;9.254;2023-06-22T04:32:13;22.13;;;19.10;;
10904;SDS011;5505;51.450;9.254;2023-06-22T04:35:01;23.20;;;19.97;;
10904;SDS011;5505;51.450;9.254;2023-06-22T04:37:49;20.90;;;18.67;;
10904;SDS011;5505;51.450;9.254;2023-06-22T04:40:39;24.10;;;21.47;;
10904;SDS011;5505;51.450;9.254;2023-06-22T04:43:26;23.20;;;20.40;;
10904;SDS011;5505;51.450;9.254;2023-06-22T04:46:15;21.57;;;19.50;;
10904;SDS011;5505;51.450;9.254;2023-06-22T04:49:02;21.43;;;19.43;;
10904;SDS011;5505;51.450;9.254;2023-06-22T04:51:52;22.00;;;19.37;;
10904;SDS011;5505;51.450;9.254;2023-06-22T04:54:40;22.47;;;20.33;;
10904;SDS011;5505;51.450;9.254;2023-06-22T04:57:32;23.00;;;20.60;;
10904;SDS011;5505;51.450;9.254;2023-06-22T05:00:19;24.13;;;21.80;;
10904;SDS011;5505;51.450;9.254;2023-06-22T05:03:08;22.53;;;20.20;;
10904;SDS011;5505;51.450;9.254;2023-06-22T05:05:56;23.57;;;21.37;;
10904;SDS011;5505;51.450;9.254;2023-06-22T05:08:44;23.27;;;20.13;;
10904;SDS011;5505;51.450;9.254;2023-06-22T05:11:31;23.47;;;21.27;;
10904;SDS011;5505;51.450;9.254;2023-06-22T05:14:17;22.93;;;20.13;;
10904;SDS011;5505;51.450;9.254;2023-06-22T05:17:04;24.13;;;21.20;;
10904;SDS011;5505;51.450;9.254;2023-06-22T05:19:58;24.87;;;22.10;;
10904;SDS011;5505;51.450;9.254;2023-06-22T05:22:45;23.13;;;20.80;;
10904;SDS011;5505;51.450;9.254;2023-06-22T05:25:33;27.13;;;22.27;;
10904;SDS011;5505;51.450;9.254;2023-06-22T05:28:20;22.03;;;19.83;;
10904;SDS011;5505;51.450;9.254;2023-06-22T05:31:07;23.33;;;21.13;;
10904;SDS011;5505;51.450;9.254;2023-06-22T05:33:55;25.23;;;22.53;;
10904;SDS011;5505;51.450;9.254;2023-06-22T05:36:42;24.93;;;22.13;;
10904;SDS011;5505;51.450;9.254;2023-06-22T05:39:29;23.90;;;21.53;;
10904;SDS011;5505;51.450;9.254;2023-06-22T05:42:17;24.00;;;21.50;;
10904;SDS011;5505;51.450;9.254;2023-06-22T05:45:04;23.97;;;21.60;;
10904;SDS011;5505;51.450;9.254;2023-06-22T05:47:52;23.33;;;21.10;;
10904;SDS011;5505;51.450;9.254;2023-06-22T05:50:38;24.07;;;21.50;;
10904;SDS011;5505;51.450;9.254;2023-06-22T05:53:25;22.57;;;20.47;;
10904;SDS011;5505;51.450;9.254;2023-06-22T05:56:12;20.97;;;18.73;;
10904;SDS011;5505;51.450;9.254;2023-06-22T05:59:00;20.13;;;18.17;;
10904;SDS011;5505;51.450;9.254;2023-06-22T06:01:47;17.93;;;16.07;;
10904;SDS011;5505;51.450;9.254;2023-06-22T06:04:35;19.57;;;17.57;;
10904;SDS011;5505;51.450;9.254;2023-06-22T06:07:21;19.20;;;17.10;;
10904;SDS011;5505;51.450;9.254;2023-06-22T06:10:09;17.60;;;15.80;;
10904;SDS011;5505;51.450;9.254;2023-06-22T06:12:56;16.20;;;14.77;;
10904;SDS011;5505;51.450;9.254;2023-06-22T06:15:44;15.13;;;13.73;;
10904;SDS011;5505;51.450;9.254;2023-06-22T06:18:31;14.50;;;13.20;;
10904;SDS011;5505;51.450;9.254;2023-06-22T06:21:18;12.77;;;11.60;;
10904;SDS011;5505;51.450;9.254;2023-06-22T06:24:05;13.07;;;11.70;;
10904;SDS011;5505;51.450;9.254;2023-06-22T06:26:52;12.13;;;10.80;;
10904;SDS011;5505;51.450;9.254;2023-06-22T06:29:39;13.03;;;11.73;;
10904;SDS011;5505;51.450;9.254;2023-06-22T06:32:27;12.40;;;11.23;;
10904;SDS011;5505;51.450;9.254;2023-06-22T06:35:14;14.17;;;11.00;;
10904;SDS011;5505;51.450;9.254;2023-06-22T06:38:04;11.57;;;10.67;;
10904;SDS011;5505;51.450;9.254;2023-06-22T06:40:51;11.60;;;10.50;;
10904;SDS011;5505;51.450;9.254;2023-06-22T06:43:38;12.03;;;10.73;;
10904;SDS011;5505;51.450;9.254;2023-06-22T06:46:24;11.53;;;10.10;;
10904;SDS011;5505;51.450;9.254;2023-06-22T06:49:13;11.97;;;11.00;;
10904;SDS011;5505;51.450;9.254;2023-06-22T06:51:59;11.20;;;10.20;;
10904;SDS011;5505;51.450;9.254;2023-06-22T06:54:46;11.27;;;10.17;;
10904;SDS011;5505;51.450;9.254;2023-06-22T06:57:33;11.37;;;10.47;;
10904;SDS011;5505;51.450;9.254;2023-06-22T07:00:22;12.47;;;11.30;;
10904;SDS011;5505;51.450;9.254;2023-06-22T07:03:10;12.90;;;11.63;;
10904;SDS011;5505;51.450;9.254;2023-06-22T07:05:58;13.03;;;11.70;;
10904;SDS011;5505;51.450;9.254;2023-06-22T07:08:45;13.33;;;11.93;;
10904;SDS011;5505;51.450;9.254;2023-06-22T07:11:32;13.33;;;12.07;;
10904;SDS011;5505;51.450;9.254;2023-06-22T07:14:20;11.13;;;10.23;;
10904;SDS011;5505;51.450;9.254;2023-06-22T07:17:07;11.40;;;10.27;;
10904;SDS011;5505;51.450;9.254;2023-06-22T07:19:53;10.80;;;9.90;;
10904;SDS011;5505;51.450;9.254;2023-06-22T07:22:42;9.77;;;8.93;;
10904;SDS011;5505;51.450;9.254;2023-06-22T07:25:30;10.43;;;9.37;;
10904;SDS011;5505;51.450;9.254;2023-06-22T07:28:19;11.30;;;10.30;;
10904;SDS011;5505;51.450;9.254;2023-06-22T07:31:08;12.13;;;11.03;;
10904;SDS011;5505;51.450;9.254;2023-06-22T07:33:57;11.00;;;8.90;;
10904;SDS011;5505;51.450;9.254;2023-06-22T07:36:44;11.20;;;10.10;;
10904;SDS011;5505;51.450;9.254;2023-06-22T07:39:34;9.37;;;8.57;;
10904;SDS011;5505;51.450;9.254;2023-06-22T07:42:22;10.17;;;9.33;;
10904;SDS011;5505;51.450;9.254;2023-06-22T07:45:09;9.90;;;9.00;;
10904;SDS011;5505;51.450;9.254;2023-06-22T07:47:56;9.73;;;8.67;;
10904;SDS011;5505;51.450;9.254;2023-06-22T07:50:43;9.93;;;9.03;;
10904;SDS011;5505;51.450;9.254;2023-06-22T07:53:30;10.93;;;8.30;;
10904;SDS011;5505;51.450;9.254;2023-06-22T07:56:18;7.80;;;7.10;;
10904;SDS011;5505;51.450;9.254;2023-06-22T07:59:07;7.07;;;6.40;;
10904;SDS011;5505;51.450;9.254;2023-06-22T08:01:54;7.40;;;6.70;;
10904;SDS011;5505;51.450;9.254;2023-06-22T08:04:41;7.73;;;7.03;;
10904;SDS011;5505;51.450;9.254;2023-06-22T08:07:28;7.40;;;6.70;;
10904;SDS011;5505;51.450;9.254;2023-06-22T08:10:15;7.33;;;6.73;;
10904;SDS011;5505;51.450;9.254;2023-06-22T08:13:03;8.60;;;6.57;;
10904;SDS011;5505;51.450;9.254;2023-06-22T08:15:50;6.80;;;6.27;;
10904;SDS011;5505;51.450;9.254;2023-06-22T08:18:37;7.93;;;6.50;;
10904;SDS011;5505;51.450;9.254;2023-06-22T08:21:24;8.60;;;7.10;;
10904;SDS011;5505;51.450;9.254;2023-06-22T08:24:11;7.43;;;6.83;;
10904;SDS011;5505;51.450;9.254;2023-06-22T08:26:59;7.80;;;7.20;;
10904;SDS011;5505;51.450;9.254;2023-06-22T08:29:47;7.93;;;7.23;;
10904;SDS011;5505;51.450;9.254;2023-06-22T08:32:35;7.90;;;7.30;;
10904;SDS011;5505;51.450;9.254;2023-06-22T08:35:22;8.30;;;7.60;;
10904;SDS011;5505;51.450;9.254;2023-06-22T08:38:17;7.90;;;7.10;;
10904;SDS011;5505;51.450;9.254;2023-06-22T08:41:04;8.33;;;7.63;;
10904;SDS011;5505;51.450;9.254;2023-06-22T08:43:54;8.23;;;7.47;;
10904;SDS011;5505;51.450;9.254;2023-06-22T08:46:46;8.70;;;7.53;;
10904;SDS011;5505;51.450;9.254;2023-06-22T08:49:36;8.10;;;7.30;;
10904;SDS011;5505;51.450;9.254;2023-06-22T08:52:23;9.23;;;7.30;;
10904;SDS011;5505;51.450;9.254;2023-06-22T08:55:10;7.83;;;7.13;;
10904;SDS011;5505;51.450;9.254;2023-06-22T08:57:58;7.80;;;7.10;;
10904;SDS011;5505;51.450;9.254;2023-06-22T09:00:48;8.33;;;7.53;;
10904;SDS011;5505;51.450;9.254;2023-06-22T09:03:38;7.93;;;7.23;;
10904;SDS011;5505;51.450;9.254;2023-06-22T09:06:25;8.13;;;7.47;;
10904;SDS011;5505;51.450;9.254;2023-06-22T09:09:16;8.63;;;7.80;;
10904;SDS011;5505;51.450;9.254;2023-06-22T09:12:03;9.03;;;8.20;;
10904;SDS011;5505;51.450;9.254;2023-06-22T09:14:51;8.17;;;7.37;;
10904;SDS011;5505;51.450;9.254;2023-06-22T09:17:41;8.87;;;7.23;;
10904;SDS011;5505;51.450;9.254;2023-06-22T09:20:31;7.30;;;6.60;;
10904;SDS011;5505;51.450;9.254;2023-06-22T09:23:22;8.37;;;7.57;;
10904;SDS011;5505;51.450;9.254;2023-06-22T09:26:10;7.87;;;7.07;;
10904;SDS011;5505;51.450;9.254;2023-06-22T09:28:58;8.00;;;6.97;;
10904;SDS011;5505;51.450;9.254;2023-06-22T09:31:45;8.20;;;7.50;;
10904;SDS011;5505;51.450;9.254;2023-06-22T09:34:33;7.60;;;6.90;;
10904;SDS011;5505;51.450;9.254;2023-06-22T09:37:21;7.80;;;7.13;;
10904;SDS011;5505;51.450;9.254;2023-06-22T09:40:08;7.40;;;6.70;;
10904;SDS011;5505;51.450;9.254;2023-06-22T09:42:58;8.13;;;7.43;;
10904;SDS011;5505;51.450;9.254;2023-06-22T09:45:50;7.43;;;6.70;;
10904;SDS011;5505;51.450;9.254;2023-06-22T09:48:39;6.70;;;6.00;;
10904;SDS011;5505;51.450;9.254;2023-06-22T09:51:26;6.93;;;6.30;;
10904;SDS011;5505;51.450;9.254;2023-06-22T09:54:15;6.87;;;6.13;;
10904;SDS011;5505;51.450;9.254;2023-06-22T09:57:03;7.00;;;6.37;;
10904;SDS011;5505;51.450;9.254;2023-06-22T09:59:52;6.63;;;6.10;;
10904;SDS011;5505;51.450;9.254;2023-06-22T10:02:42;6.33;;;5.73;;
10904;SDS011;5505;51.450;9.254;2023-06-22T10:05:29;6.53;;;5.93;;
10904;SDS011;5505;51.450;9.254;2023-06-22T10:08:17;6.80;;;6.20;;
10904;SDS011;5505;51.450;9.254;2023-06-22T10:11:06;6.37;;;5.87;;
10904;SDS011;5505;51.450;9.254;2023-06-22T10:14:01;5.93;;;5.37;;
10904;SDS011;5505;51.450;9.254;2023-06-22T10:16:52;6.10;;;5.60;;
10904;SDS011;5505;51.450;9.254;2023-06-22T10:19:40;5.93;;;5.33;;
10904;SDS011;5505;51.450;9.254;2023-06-22T10:22:36;6.93;;;5.67;;
10904;SDS011;5505;51.450;9.254;2023-06-22T10:25:27;5.80;;;5.30;;
10904;SDS011;5505;51.450;9.254;2023-06-22T10:28:17;5.90;;;5.40;;
10904;SDS011;5505;51.450;9.254;2023-06-22T10:31:05;6.73;;;6.13;;
10904;SDS011;5505;51.450;9.254;2023-06-22T10:33:55;6.27;;;5.67;;
10904;SDS011;5505;51.450;9.254;2023-06-22T10:36:49;8.13;;;6.20;;
10904;SDS011;5505;51.450;9.254;2023-06-22T10:39:39;6.47;;;5.87;;
10904;SDS011;5505;51.450;9.254;2023-06-22T10:42:33;6.60;;;5.97;;
10904;SDS011;5505;51.450;9.254;2023-06-22T10:45:22;6.90;;;6.33;;
10904;SDS011;5505;51.450;9.254;2023-06-22T10:48:10;8.37;;;6.00;;
10904;SDS011;5505;51.450;9.254;2023-06-22T10:50:57;7.40;;;6.03;;
10904;SDS011;5505;51.450;9.254;2023-06-22T10:53:44;5.90;;;5.40;;
10904;SDS011;5505;51.450;9.254;2023-06-22T10:56:32;7.10;;;5.87;;
10904;SDS011;5505;51.450;9.254;2023-06-22T10:59:20;6.70;;;6.00;;
10904;SDS011;5505;51.450;9.254;2023-06-22T11:02:12;6.07;;;5.40;;
10904;SDS011;5505;51.450;9.254;2023-06-22T11:05:01;6.00;;;5.50;;
10904;SDS011;5505;51.450;9.254;2023-06-22T11:07:51;5.90;;;5.30;;
10904;SDS011;5505;51.450;9.254;2023-06-22T11:10:38;6.10;;;5.60;;
10904;SDS011;5505;51.450;9.254;2023-06-22T11:13:30;7.23;;;5.70;;
10904;SDS011;5505;51.450;9.254;2023-06-22T11:16:17;9.53;;;5.40;;
10904;SDS011;5505;51.450;9.254;2023-06-22T11:19:08;6.97;;;5.23;;
10904;SDS011;5505;51.450;9.254;2023-06-22T11:21:56;6.00;;;5.40;;
10904;SDS011;5505;51.450;9.254;2023-06-22T11:24:43;7.13;;;5.53;;
10904;SDS011;5505;51.450;9.254;2023-06-22T11:27:30;5.80;;;5.30;;
10904;SDS011;5505;51.450;9.254;2023-06-22T11:30:17;9.80;;;4.90;;
10904;SDS011;5505;51.450;9.254;2023-06-22T11:33:07;6.07;;;4.60;;
10904;SDS011;5505;51.450;9.254;2023-06-22T11:35:58;5.17;;;4.67;;
10904;SDS011;5505;51.450;9.254;2023-06-22T11:38:47;5.18;;;4.50;;
10904;SDS011;5505;51.450;9.254;2023-06-22T11:41:35;5.23;;;4.57;;
10904;SDS011;5505;51.450;9.254;2023-06-22T11:44:22;4.80;;;4.32;;
10904;SDS011;5505;51.450;9.254;2023-06-22T11:47:09;4.80;;;4.35;;
10904;SDS011;5505;51.450;9.254;2023-06-22T11:49:57;5.35;;;4.68;;
10904;SDS011;5505;51.450;9.254;2023-06-22T11:52:48;4.95;;;4.40;;
10904;SDS011;5505;51.450;9.254;2023-06-22T11:55:35;6.30;;;4.18;;
10904;SDS011;5505;51.450;9.254;2023-06-22T11:58:25;5.10;;;4.60;;
10904;SDS011;5505;51.450;9.254;2023-06-22T12:01:11;5.20;;;4.70;;
10904;SDS011;5505;51.450;9.254;2023-06-22T12:04:00;5.93;;;4.82;;
10904;SDS011;5505;51.450;9.254;2023-06-22T12:06:50;4.80;;;4.28;;
10904;SDS011;5505;51.450;9.254;2023-06-22T12:09:38;5.30;;;4.80;;
10904;SDS011;5505;51.450;9.254;2023-06-22T12:12:27;4.97;;;4.57;;
10904;SDS011;5505;51.450;9.254;2023-06-22T12:15:14;5.57;;;5.07;;
10904;SDS011;5505;51.450;9.254;2023-06-22T12:18:04;8.03;;;4.80;;
10904;SDS011;5505;51.450;9.254;2023-06-22T12:22:34;5.23;;;4.83;;
10904;SDS011;5505;51.450;9.254;2023-06-22T12:24:51;5.83;;;5.33;;
10904;SDS011;5505;51.450;9.254;2023-06-22T12:27:45;9.03;;;5.40;;
10904;SDS011;5505;51.450;9.254;2023-06-22T12:30:34;5.80;;;5.30;;
10904;SDS011;5505;51.450;9.254;2023-06-22T12:33:26;5.60;;;5.10;;
10904;SDS011;5505;51.450;9.254;2023-06-22T12:36:25;5.73;;;5.23;;
10904;SDS011;5505;51.450;9.254;2023-06-22T12:39:15;6.00;;;5.50;;
10904;SDS011;5505;51.450;9.254;2023-06-22T12:45:50;5.93;;;5.33;;
10904;SDS011;5505;51.450;9.254;2023-06-22T12:48:39;5.97;;;5.47;;
10904;SDS011;5505;51.450;9.254;2023-06-22T12:51:27;5.10;;;4.70;;
10904;SDS011;5505;51.450;9.254;2023-06-22T12:54:14;6.73;;;5.10;;
10904;SDS011;5505;51.450;9.254;2023-06-22T12:57:02;6.03;;;4.60;;
10904;SDS011;5505;51.450;9.254;2023-06-22T12:59:49;5.30;;;4.90;;
10904;SDS011;5505;51.450;9.254;2023-06-22T13:02:37;5.67;;;5.13;;
10904;SDS011;5505;51.450;9.254;2023-06-22T13:05:24;4.97;;;4.40;;
10904;SDS011;5505;51.450;9.254;2023-06-22T13:08:11;4.50;;;4.10;;
10904;SDS011;5505;51.450;9.254;2023-06-22T13:10:59;5.00;;;4.50;;
10904;SDS011;5505;51.450;9.254;2023-06-22T13:13:46;5.20;;;4.70;;
10904;SDS011;5505;51.450;9.254;2023-06-22T13:16:33;6.65;;;4.68;;
10904;SDS011;5505;51.450;9.254;2023-06-22T13:19:21;4.57;;;4.10;;
10904;SDS011;5505;51.450;9.254;2023-06-22T13:22:24;5.00;;;4.55;;
10904;SDS011;5505;51.450;9.254;2023-06-22T13:25:13;4.53;;;4.13;;
10904;SDS011;5505;51.450;9.254;2023-06-22T13:28:04;5.97;;;4.20;;
10904;SDS011;5505;51.450;9.254;2023-06-22T13:30:50;5.17;;;4.30;;
10904;SDS011;5505;51.450;9.254;2023-06-22T13:33:39;5.23;;;4.40;;
10904;SDS011;5505;51.450;9.254;2023-06-22T13:36:28;5.20;;;4.30;;
10904;SDS011;5505;51.450;9.254;2023-06-22T13:39:15;4.57;;;4.17;;
10904;SDS011;5505;51.450;9.254;2023-06-22T13:42:03;4.90;;;4.13;;
10904;SDS011;5505;51.450;9.254;2023-06-22T13:44:50;4.55;;;4.20;;
10904;SDS011;5505;51.450;9.254;2023-06-22T13:47:37;5.80;;;4.60;;
10904;SDS011;5505;51.450;9.254;2023-06-22T13:50:24;4.97;;;4.10;;
10904;SDS011;5505;51.450;9.254;2023-06-22T13:53:12;4.63;;;4.23;;
10904;SDS011;5505;51.450;9.254;2023-06-22T13:55:59;4.33;;;4.00;;
10904;SDS011;5505;51.450;9.254;2023-06-22T13:58:45;4.60;;;4.00;;
10904;SDS011;5505;51.450;9.254;2023-06-22T14:01:32;7.17;;;5.10;;
10904;SDS011;5505;51.450;9.254;2023-06-22T14:04:19;4.60;;;4.20;;
10904;SDS011;5505;51.450;9.254;2023-06-22T14:07:06;4.70;;;4.30;;
10904;SDS011;5505;51.450;9.254;2023-06-22T14:09:54;5.00;;;4.37;;
10904;SDS011;5505;51.450;9.254;2023-06-22T14:12:40;4.80;;;4.40;;
10904;SDS011;5505;51.450;9.254;2023-06-22T14:15:27;7.13;;;4.47;;
10904;SDS011;5505;51.450;9.254;2023-06-22T14:18:14;5.70;;;4.50;;
10904;SDS011;5505;51.450;9.254;2023-06-22T14:21:01;5.07;;;4.50;;
10904;SDS011;5505;51.450;9.254;2023-06-22T14:23:48;7.37;;;4.40;;
10904;SDS011;5505;51.450;9.254;2023-06-22T14:26:36;9.33;;;5.30;;
10904;SDS011;5505;51.450;9.254;2023-06-22T14:29:23;10.73;;;6.80;;
10904;SDS011;5505;51.450;9.254;2023-06-22T14:32:17;15.97;;;9.20;;
10904;SDS011;5505;51.450;9.254;2023-06-22T14:35:04;13.33;;;9.13;;
10904;SDS011;5505;51.450;9.254;2023-06-22T14:37:51;11.10;;;7.70;;
10904;SDS011;5505;51.450;9.254;2023-06-22T14:40:37;10.60;;;8.20;;
10904;SDS011;5505;51.450;9.254;2023-06-22T14:43:26;9.53;;;8.37;;
10904;SDS011;5505;51.450;9.254;2023-06-22T14:46:14;9.77;;;7.47;;
10904;SDS011;5505;51.450;9.254;2023-06-22T14:49:01;9.00;;;7.27;;
10904;SDS011;5505;51.450;9.254;2023-06-22T14:51:48;8.00;;;7.20;;
10904;SDS011;5505;51.450;9.254;2023-06-22T14:54:35;11.17;;;8.50;;
10904;SDS011;5505;51.450;9.254;2023-06-22T14:57:22;10.40;;;9.00;;
10904;SDS011;5505;51.450;9.254;2023-06-22T15:00:11;12.60;;;9.53;;
10904;SDS011;5505;51.450;9.254;2023-06-22T15:02:58;10.63;;;8.60;;
10904;SDS011;5505;51.450;9.254;2023-06-22T15:05:45;9.47;;;7.87;;
10904;SDS011;5505;51.450;9.254;2023-06-22T15:08:32;8.90;;;8.00;;
10904;SDS011;5505;51.450;9.254;2023-06-22T15:11:18;7.70;;;6.10;;
10904;SDS011;5505;51.450;9.254;2023-06-22T15:14:05;4.80;;;4.40;;
10904;SDS011;5505;51.450;9.254;2023-06-22T15:16:54;3.70;;;3.33;;
10904;SDS011;5505;51.450;9.254;2023-06-22T15:19:40;3.83;;;3.30;;
10904;SDS011;5505;51.450;9.254;2023-06-22T15:22:27;6.63;;;3.33;;
10904;SDS011;5505;51.450;9.254;2023-06-22T15:25:16;4.00;;;3.60;;
10904;SDS011;5505;51.450;9.254;2023-06-22T15:28:03;4.63;;;3.40;;
10904;SDS011;5505;51.450;9.254;2023-06-22T15:30:50;5.00;;;3.70;;
10904;SDS011;5505;51.450;9.254;2023-06-22T15:33:38;4.23;;;3.57;;
10904;SDS011;5505;51.450;9.254;2023-06-22T15:36:25;4.50;;;3.83;;
10904;SDS011;5505;51.450;9.254;2023-06-22T15:39:11;4.80;;;4.00;;
10904;SDS011;5505;51.450;9.254;2023-06-22T15:41:58;4.87;;;4.13;;
10904;SDS011;5505;51.450;9.254;2023-06-22T15:44:45;6.13;;;5.53;;
10904;SDS011;5505;51.450;9.254;2023-06-22T15:47:32;9.47;;;6.07;;
10904;SDS011;5505;51.450;9.254;2023-06-22T15:50:20;7.43;;;6.07;;
10904;SDS011;5505;51.450;9.254;2023-06-22T15:53:07;6.80;;;6.10;;
10904;SDS011;5505;51.450;9.254;2023-06-22T15:55:54;6.97;;;5.27;;
10904;SDS011;5505;51.450;9.254;2023-06-22T15:58:41;5.50;;;5.00;;
10904;SDS011;5505;51.450;9.254;2023-06-22T16:01:28;8.10;;;5.07;;
10904;SDS011;5505;51.450;9.254;2023-06-22T16:04:15;6.67;;;4.87;;
10904;SDS011;5505;51.450;9.254;2023-06-22T16:07:03;6.30;;;4.60;;
10904;SDS011;5505;51.450;9.254;2023-06-22T16:09:50;7.80;;;4.43;;
10904;SDS011;5505;51.450;9.254;2023-06-22T16:12:37;9.50;;;5.30;;
10904;SDS011;5505;51.450;9.254;2023-06-22T18:35:26;0.00;;;0.00;;
10904;SDS011;5505;51.450;9.254;2023-06-22T18:38:13;0.00;;;0.00;;
10904;SDS011;5505;51.450;9.254;2023-06-22T18:41:00;0.00;;;0.00;;
10904;SDS011;5505;51.450;9.254;2023-06-22T18:43:47;0.00;;;0.00;;
10904;SDS011;5505;51.450;9.254;2023-06-22T18:46:37;0.00;;;0.00;;
10904;SDS011;5505;51.450;9.254;2023-06-22T18:49:25;0.00;;;0.00;;
10904;SDS011;5505;51.450;9.254;2023-06-22T18:52:23;0.10;;;0.10;;
10904;SDS011;5505;51.450;9.254;2023-06-22T18:55:11;0.07;;;0.07;;
10904;SDS011;5505;51.450;9.254;2023-06-22T18:58:14;0.00;;;0.00;;
10904;SDS011;5505;51.450;9.254;2023-06-22T19:01:14;0.00;;;0.00;;
10904;SDS011;5505;51.450;9.254;2023-06-22T19:04:01;0.00;;;0.00;;
10904;SDS011;5505;51.450;9.254;2023-06-22T19:07:02;0.00;;;0.00;;
10904;SDS011;5505;51.450;9.254;2023-06-22T19:13:18;0.00;;;0.00;;
10904;SDS011;5505;51.450;9.254;2023-06-22T19:16:07;0.00;;;0.00;;
10904;SDS011;5505;51.450;9.254;2023-06-22T19:18:55;0.00;;;0.00;;
10904;SDS011;5505;51.450;9.254;2023-06-22T19:21:42;0.00;;;0.00;;